createdAt,value
2023-12-24T00:04:24.278Z,71.90
2023-12-24T00:09:27.439Z,71.75
2023-12-24T00:14:31.583Z,72.08
2023-12-24T00:19:35.934Z,71.71
2023-12-24T00:24:38.986Z,70.61
2023-12-24T00:29:41.903Z,70.87
2023-12-24T00:34:46.276Z,73.87
2023-12-24T00:39:49.938Z,71.47
2023-12-24T00:44:54.563Z,70.37
2023-12-24T00:49:58.305Z,69.79
2023-12-24T00:55:02.114Z,69.22
2023-12-24T01:00:07.564Z,67.37
2023-12-24T01:05:10.913Z,69.07
2023-12-24T01:10:16.996Z,69.42
2023-12-24T01:15:22.286Z,68.52
2023-12-24T01:20:25.337Z,70.08
2023-12-24T01:25:28.737Z,68.35
2023-12-24T01:30:31.353Z,69.31
2023-12-24T01:35:34.309Z,69.28
2023-12-24T01:40:37.294Z,68.34
2023-12-24T01:45:58.314Z,69.51
2023-12-24T01:51:01.884Z,69.44
2023-12-24T01:56:06.919Z,69.83
2023-12-24T02:01:11.063Z,70.15
2023-12-24T02:06:16.007Z,70.67
2023-12-24T02:11:22.367Z,69.56
2023-12-24T02:16:35.345Z,66.68
2023-12-24T02:21:38.562Z,67.41
2023-12-24T02:26:55.137Z,68.20
2023-12-24T02:32:07.821Z,68.48
2023-12-24T02:37:11.199Z,67.72
2023-12-24T02:42:14.267Z,68.55
2023-12-24T02:47:17.026Z,69.08
2023-12-24T02:52:20.398Z,69.19
2023-12-24T02:57:23.840Z,70.13
2023-12-24T03:02:27.120Z,70.29
2023-12-24T03:07:30.486Z,69.50
2023-12-24T03:12:34.156Z,70.94
2023-12-24T03:17:37.129Z,69.81
2023-12-24T03:22:40.262Z,69.83
2023-12-24T03:27:43.112Z,71.57
2023-12-24T03:32:46.734Z,71.61
2023-12-24T03:37:50.586Z,73.08
2023-12-24T03:42:54.546Z,73.55
2023-12-24T03:47:57.765Z,71.13
2023-12-24T03:53:01.384Z,72.51
2023-12-24T03:58:05.361Z,69.75
2023-12-24T04:03:11.972Z,71.29
2023-12-24T04:08:16.942Z,70.96
2023-12-24T04:13:20.747Z,70.30
2023-12-24T04:18:24.115Z,72.43
2023-12-24T04:23:27.353Z,72.79
2023-12-24T04:28:31.127Z,72.62
2023-12-24T04:33:34.264Z,71.67
2023-12-24T04:38:37.571Z,72.66
2023-12-24T04:43:42.708Z,70.35
2023-12-24T04:48:46.240Z,70.62
2023-12-24T04:53:50.653Z,69.44
2023-12-24T04:58:54.849Z,69.67
2023-12-24T05:04:01.550Z,70.58
2023-12-24T05:09:07.005Z,71.29
2023-12-24T05:14:10.567Z,70.51
2023-12-24T05:19:13.357Z,72.90
2023-12-24T05:24:16.628Z,72.88
2023-12-24T05:29:19.990Z,73.84
2023-12-24T05:34:23.186Z,72.78
2023-12-24T05:39:27.071Z,74.86
2023-12-24T05:44:30.798Z,75.17
2023-12-24T05:49:35.044Z,75.78
2023-12-24T05:54:39.499Z,74.45
2023-12-24T05:59:43.104Z,73.51
2023-12-24T06:04:46.150Z,73.37
2023-12-24T06:09:49.108Z,74.60
2023-12-24T06:14:51.994Z,75.20
2023-12-24T06:19:55.752Z,77.16
2023-12-24T06:24:59.357Z,76.79
2023-12-24T06:30:04.396Z,76.53
2023-12-24T06:35:07.817Z,77.46
2023-12-24T06:40:11.939Z,78.74
2023-12-24T06:45:17.925Z,77.63
2023-12-24T06:50:21.670Z,77.71
2023-12-24T06:55:24.861Z,78.01
2023-12-24T07:00:28.520Z,75.98
2023-12-24T07:05:35.904Z,76.46
2023-12-24T07:10:40.159Z,74.57
2023-12-24T07:15:44.048Z,73.54
2023-12-24T07:20:47.244Z,72.31
2023-12-24T07:25:49.867Z,73.36
2023-12-24T07:30:52.884Z,72.80
2023-12-24T07:35:55.747Z,73.66
2023-12-24T07:40:59.051Z,73.19
2023-12-24T07:46:02.042Z,71.45
2023-12-24T07:51:05.193Z,71.47
2023-12-24T07:56:07.917Z,71.36
2023-12-24T08:01:11.373Z,70.88
2023-12-24T08:06:27.885Z,71.38
2023-12-24T08:11:31.937Z,71.54
2023-12-24T08:16:36.657Z,70.92
2023-12-24T08:21:39.457Z,71.03
2023-12-24T08:26:42.765Z,71.61
2023-12-24T08:31:45.727Z,71.12
2023-12-24T08:36:48.489Z,71.00
2023-12-24T08:41:51.901Z,70.75
2023-12-24T08:46:54.815Z,70.75
2023-12-24T08:51:58.460Z,70.92
2023-12-24T08:57:01.328Z,69.68
2023-12-24T09:02:04.288Z,69.94
2023-12-24T09:07:07.278Z,69.86
2023-12-24T09:12:10.726Z,70.31
2023-12-24T09:17:13.733Z,68.32
2023-12-24T09:22:16.378Z,68.74
2023-12-24T09:27:19.603Z,68.41
2023-12-24T09:32:22.495Z,67.19
2023-12-24T09:37:26.641Z,66.65
2023-12-24T09:42:29.518Z,66.57
2023-12-24T09:47:32.379Z,66.64
2023-12-24T09:52:36.139Z,66.67
2023-12-24T09:57:40.820Z,66.47
2023-12-24T10:02:46.610Z,65.90
2023-12-24T10:07:49.604Z,65.54
2023-12-24T10:13:09.531Z,65.20
2023-12-24T10:18:21.527Z,65.64
2023-12-24T10:23:24.747Z,64.69
2023-12-24T10:28:27.491Z,64.77
2023-12-24T10:33:31.396Z,64.04
2023-12-24T10:38:36.065Z,64.02
2023-12-24T10:43:38.962Z,64.98
2023-12-24T10:48:41.754Z,65.13
2023-12-24T10:53:45.599Z,64.62
2023-12-24T10:59:01.187Z,64.66
2023-12-24T11:04:04.292Z,63.85
2023-12-24T11:09:15.771Z,65.18
2023-12-24T11:14:47.201Z,65.09
2023-12-24T11:19:50.873Z,64.15
2023-12-24T11:25:19.439Z,64.12
2023-12-24T11:30:22.511Z,63.76
2023-12-24T11:35:53.652Z,64.22
2023-12-24T11:41:08.753Z,64.23
2023-12-24T11:46:12.023Z,65.25
2023-12-24T11:51:15.201Z,65.26
2023-12-24T11:56:20.250Z,64.05
2023-12-24T12:01:41.426Z,63.77
2023-12-24T12:06:44.556Z,64.34
2023-12-24T12:11:49.149Z,64.39
2023-12-24T12:16:51.921Z,63.08
2023-12-24T12:21:54.775Z,64.10
2023-12-24T12:26:57.641Z,64.93
2023-12-24T12:32:03.237Z,65.82
2023-12-24T12:37:06.511Z,64.60
2023-12-24T12:42:10.085Z,64.46
2023-12-24T12:47:16.371Z,65.03
2023-12-24T12:52:19.720Z,65.46
2023-12-24T12:57:33.702Z,65.65
2023-12-24T13:02:41.627Z,65.13
2023-12-24T13:07:45.100Z,65.42
2023-12-24T13:12:47.958Z,65.99
2023-12-24T13:17:51.139Z,66.78
2023-12-24T13:22:56.358Z,65.41
2023-12-24T13:27:58.893Z,65.77
2023-12-24T13:33:02.087Z,66.99
2023-12-24T13:38:25.684Z,66.69
2023-12-24T13:43:29.950Z,66.66
2023-12-24T13:48:34.519Z,68.42
2023-12-24T13:53:38.762Z,67.93
2023-12-24T13:58:43.340Z,68.15
2023-12-24T14:03:46.995Z,67.30
2023-12-24T14:08:49.935Z,68.10
2023-12-24T14:13:53.250Z,67.98
2023-12-24T14:18:56.614Z,66.65
2023-12-24T14:24:00.305Z,67.02
2023-12-24T14:29:02.990Z,67.67
2023-12-24T14:34:06.158Z,68.16
2023-12-24T14:39:09.459Z,66.96
2023-12-24T14:44:12.404Z,67.68
2023-12-24T14:49:15.805Z,67.94
2023-12-24T14:54:18.927Z,67.15
2023-12-24T14:59:21.703Z,67.50
2023-12-24T15:04:26.610Z,67.10
2023-12-24T15:09:29.327Z,67.78
2023-12-24T15:14:32.448Z,67.22
2023-12-24T15:19:35.637Z,65.92
2023-12-24T15:24:39.587Z,66.10
2023-12-24T15:29:43.107Z,66.70
2023-12-24T15:34:46.135Z,67.50
2023-12-24T15:39:49.068Z,66.70
2023-12-24T15:44:52.485Z,66.68
2023-12-24T15:49:56.380Z,65.42
2023-12-24T15:55:01.889Z,66.11
2023-12-24T16:00:09.990Z,64.61
2023-12-24T16:05:14.811Z,64.66
2023-12-24T16:10:18.012Z,64.16
2023-12-24T16:15:21.082Z,65.42
2023-12-24T16:20:24.048Z,64.97
2023-12-24T16:25:27.990Z,65.35
2023-12-24T16:30:30.664Z,65.14
2023-12-24T16:35:33.983Z,64.97
2023-12-24T16:40:37.483Z,64.47
2023-12-24T16:45:44.033Z,62.55
2023-12-24T16:50:49.079Z,62.90
2023-12-24T16:55:53.566Z,63.79
2023-12-24T17:00:56.273Z,63.91
2023-12-24T17:05:59.511Z,65.05
2023-12-24T17:11:02.473Z,64.59
2023-12-24T17:16:05.901Z,64.38
2023-12-24T17:21:09.493Z,65.71
2023-12-24T17:26:12.206Z,64.69
2023-12-24T17:31:15.087Z,64.30
2023-12-24T17:36:20.407Z,64.99
2023-12-24T17:41:23.675Z,64.68
2023-12-24T17:46:33.598Z,65.05
2023-12-24T17:51:41.130Z,64.20
2023-12-24T17:56:46.422Z,63.36
2023-12-24T18:01:50.170Z,64.08
2023-12-24T18:06:53.575Z,61.83
2023-12-24T18:11:59.774Z,62.90
2023-12-24T18:17:04.168Z,63.21
2023-12-24T18:22:07.442Z,61.56
2023-12-24T18:27:10.132Z,60.90
2023-12-24T18:32:14.421Z,61.05
2023-12-24T18:37:18.210Z,60.25
2023-12-24T18:42:21.317Z,60.39
2023-12-24T18:47:25.183Z,59.42
2023-12-24T18:52:30.167Z,57.97
2023-12-24T18:57:34.358Z,58.62
2023-12-24T19:02:37.923Z,58.35
2023-12-24T19:07:40.729Z,57.25
2023-12-24T19:12:43.623Z,56.97
2023-12-24T19:17:47.425Z,56.96
2023-12-24T19:22:51.330Z,57.92
2023-12-24T19:27:54.067Z,57.33
2023-12-24T19:32:57.703Z,58.88
2023-12-24T19:38:00.742Z,60.04
2023-12-24T19:43:03.917Z,60.93
2023-12-24T19:48:11.163Z,61.67
2023-12-24T19:53:14.436Z,61.92
2023-12-24T19:58:18.488Z,60.82
2023-12-24T20:03:21.315Z,61.78
2023-12-24T20:08:24.429Z,60.41
2023-12-24T20:13:28.262Z,60.15
2023-12-24T20:18:31.437Z,60.41
2023-12-24T20:23:34.364Z,59.95
2023-12-24T20:28:37.727Z,59.66
2023-12-24T20:33:44.064Z,58.98
2023-12-24T20:38:49.390Z,59.02
2023-12-24T20:43:52.370Z,58.02
2023-12-24T20:48:55.024Z,57.97
2023-12-24T20:53:57.928Z,57.71
2023-12-24T20:59:03.282Z,58.74
2023-12-24T21:04:07.346Z,60.80
2023-12-24T21:09:13.128Z,60.79
2023-12-24T21:14:18.409Z,61.81
2023-12-24T21:19:22.314Z,61.52
2023-12-24T21:24:25.503Z,62.37
2023-12-24T21:29:28.164Z,63.92
2023-12-24T21:34:32.081Z,65.19
2023-12-24T21:39:35.734Z,64.10
2023-12-24T21:44:42.537Z,65.20
2023-12-24T21:49:47.871Z,64.93
2023-12-24T21:54:50.423Z,64.63
2023-12-24T21:59:54.066Z,64.05
2023-12-24T22:04:57.179Z,65.33
2023-12-24T22:09:59.907Z,65.22
2023-12-24T22:15:02.649Z,64.27
2023-12-24T22:20:07.355Z,64.19
2023-12-24T22:25:10.473Z,64.65
2023-12-24T22:30:13.367Z,64.92
2023-12-24T22:35:16.865Z,62.90
2023-12-24T22:40:19.799Z,63.36
2023-12-24T22:45:23.331Z,64.38
2023-12-24T22:50:25.939Z,63.51
2023-12-24T22:55:29.242Z,63.80
2023-12-24T23:00:34.098Z,63.75
2023-12-24T23:05:38.213Z,62.13
2023-12-24T23:10:42.303Z,62.28
2023-12-24T23:15:44.948Z,62.83
2023-12-24T23:20:47.657Z,63.20
2023-12-24T23:25:50.529Z,62.43
2023-12-24T23:30:53.768Z,62.91
2023-12-24T23:36:05.673Z,63.27
2023-12-24T23:41:16.006Z,62.54
2023-12-24T23:46:18.974Z,63.30
2023-12-24T23:51:21.677Z,62.07
2023-12-24T23:56:24.982Z,63.98
